Terminal Aerodrome Forecast
Issued by NWS

Home | Current Version | Previous Version | Text Only | Print | Product List | Glossary On
Versions: 1 2 3 4 5 6 7 8 9 10 11 12 13 14 15 16
382
FTUS45 KFGZ 251120
TAFSEZ
TAF
KSEZ 251120Z 2512/2612 VRB06KT P6SM BKN160
     FM251800 21009KT P6SM BKN150
     FM260300 08007KT P6SM BKN140=

USA.gov is the U.S. government's official web portal to all federal, state and local government web resources and services.